Time;durP1;ratioP1;P1;durP2;ratioP2;P2;SDS_P1;SDS_P2;PMS_P1;PMS_P2;Temp;Humidity;BMP_temperature;BMP_pressure;BME280_temperature;BME280_humidity;BME280_pressure;Samples;Min_cycle;Max_cycle;Signal;HPM_P1;HPM_P2
2023/03/15 00:02:05;;;;;;;7.85;2.10;;;;;;;0.48;100.00;99907.44;6084818;29;21743;-84
2023/03/15 00:05:11;;;;;;;5.63;1.58;;;;;;;0.54;100.00;99907.94;6087931;29;20044;-84
2023/03/15 00:08:14;;;;;;;3.47;1.10;;;;;;;0.75;100.00;99910.38;6081258;29;20071;-83
2023/03/15 00:11:17;;;;;;;7.15;1.45;;;;;;;0.69;100.00;99921.66;6080780;29;20473;-84
2023/03/15 00:14:20;;;;;;;7.82;1.30;;;;;;;0.73;100.00;99919.81;6084254;29;20036;-84
2023/03/15 00:17:22;;;;;;;4.00;1.30;;;;;;;0.61;100.00;99929.69;6077194;29;20550;-84
2023/03/15 00:20:23;;;;;;;5.22;1.30;;;;;;;0.66;100.00;99926.09;6088528;29;20040;-84
2023/03/15 00:23:25;;;;;;;5.70;1.58;;;;;;;0.70;100.00;99935.25;6070066;29;20994;-84
2023/03/15 00:26:27;;;;;;;8.00;1.60;;;;;;;0.61;100.00;99929.69;6081721;29;20419;-84
2023/03/15 00:29:29;;;;;;;6.93;1.50;;;;;;;0.72;100.00;99926.63;6088227;29;20054;-84
2023/03/15 00:32:31;;;;;;;5.32;1.75;;;;;;;0.77;100.00;99934.03;6082870;29;20243;-84
2023/03/15 00:35:38;;;;;;;8.27;1.50;;;;;;;0.82;100.00;99932.09;6087643;29;20052;-84
2023/03/15 00:38:42;;;;;;;8.13;1.25;;;;;;;0.78;100.00;99940.78;6084117;29;20135;-84
2023/03/15 00:41:44;;;;;;;8.43;1.60;;;;;;;0.85;100.00;99942.16;6078524;29;20040;-84
2023/03/15 00:44:46;;;;;;;4.45;1.23;;;;;;;0.93;100.00;99952.78;6076030;29;20056;-84
2023/03/15 00:47:49;;;;;;;5.90;1.90;;;;;;;0.91;100.00;99938.47;6075779;29;20501;-84
2023/03/15 00:51:02;;;;;;;8.52;1.63;;;;;;;1.01;100.00;99953.22;6079981;29;20082;-84
2023/03/15 00:54:04;;;;;;;4.45;1.25;;;;;;;1.07;100.00;99958.03;6084121;29;20368;-84
2023/03/15 00:57:06;;;;;;;7.15;1.65;;;;;;;1.18;100.00;99957.50;6081088;29;20104;-84
2023/03/15 01:00:12;;;;;;;2.67;1.10;;;;;;;1.31;100.00;99962.00;6079826;29;20044;-84
2023/03/15 01:03:14;;;;;;;4.97;1.20;;;;;;;1.40;100.00;99970.03;6079295;29;20040;-84
2023/03/15 01:06:21;;;;;;;6.05;1.20;;;;;;;1.46;100.00;99979.09;6082420;29;20043;-84
2023/03/15 01:09:23;;;;;;;11.02;1.85;;;;;;;1.45;100.00;99962.16;6093204;29;20056;-84
2023/03/15 01:12:25;;;;;;;6.03;1.45;;;;;;;1.40;100.00;99969.22;6085383;29;20156;-84
2023/03/15 01:15:28;;;;;;;3.55;1.20;;;;;;;1.43;100.00;99962.22;6086644;29;20753;-84
2023/03/15 01:18:30;;;;;;;2.58;1.08;;;;;;;1.47;100.00;99963.72;6085294;29;20059;-84
2023/03/15 01:21:31;;;;;;;9.50;2.03;;;;;;;1.57;100.00;99965.81;6088558;29;20048;-84
2023/03/15 01:24:33;;;;;;;6.15;1.70;;;;;;;1.53;100.00;99969.41;6089114;29;20062;-84
2023/03/15 01:27:35;;;;;;;5.30;1.60;;;;;;;1.56;100.00;99970.06;6092537;29;20052;-84
2023/03/15 01:30:37;;;;;;;5.30;1.42;;;;;;;1.54;100.00;99977.00;6081951;29;20546;-84
2023/03/15 01:33:39;;;;;;;4.63;1.33;;;;;;;1.64;100.00;99964.56;6092125;29;20155;-84
2023/03/15 01:36:41;;;;;;;8.70;1.95;;;;;;;1.70;100.00;99974.47;6088926;29;20459;-84
2023/03/15 01:39:43;;;;;;;4.32;1.25;;;;;;;1.75;100.00;99974.25;6083292;29;20050;-84
2023/03/15 01:42:52;;;;;;;7.47;1.35;;;;;;;1.82;100.00;99971.31;6068957;29;20044;-84
2023/03/15 01:45:54;;;;;;;6.43;1.50;;;;;;;1.84;100.00;99984.81;6085342;29;20047;-84
2023/03/15 01:49:03;;;;;;;4.88;1.30;;;;;;;1.90;100.00;99979.38;6087289;29;20048;-84
2023/03/15 01:52:14;;;;;;;5.65;1.40;;;;;;;1.85;100.00;99977.97;6074576;29;20068;-84
2023/03/15 01:55:23;;;;;;;6.55;1.30;;;;;;;1.90;100.00;99979.38;6081508;29;20147;-84
2023/03/15 01:58:40;;;;;;;5.88;1.40;;;;;;;2.01;100.00;99981.34;6084473;29;20498;-84
2023/03/15 02:01:44;;;;;;;6.80;1.67;;;;;;;2.02;100.00;99984.75;6082087;29;20044;-84
2023/03/15 02:05:08;;;;;;;6.32;1.50;;;;;;;2.00;100.00;99981.47;6084138;29;20048;-84
2023/03/15 02:08:11;;;;;;;6.07;1.85;;;;;;;1.92;100.00;99987.78;6081873;29;20051;-84
2023/03/15 02:11:16;;;;;;;5.18;1.42;;;;;;;2.00;100.00;99989.13;6091580;29;20040;-84
2023/03/15 02:14:21;;;;;;;9.10;1.77;;;;;;;1.99;100.00;99988.28;6090858;29;20211;-84
2023/03/15 02:17:32;;;;;;;5.00;1.38;;;;;;;2.04;100.00;99986.31;6078527;29;20060;-84
2023/03/15 02:21:19;;;;;;;8.32;1.50;;;;;;;2.01;100.00;99994.13;6078582;29;20207;-84
2023/03/15 02:28:38;;;;;;;4.20;1.38;;;;;;;2.04;100.00;99999.09;6085163;29;20048;-84
2023/03/15 02:31:40;;;;;;;4.88;1.75;;;;;;;2.01;100.00;100000.97;6084079;29;20052;-84
2023/03/15 02:34:42;;;;;;;7.85;1.65;;;;;;;2.02;100.00;100000.06;6084775;29;20040;-84
2023/03/15 02:37:44;;;;;;;6.38;1.67;;;;;;;1.93;100.00;100009.84;6084268;29;20147;-84
2023/03/15 02:40:46;;;;;;;9.10;1.70;;;;;;;1.88;100.00;100016.09;6087445;29;20048;-83
2023/03/15 02:43:51;;;;;;;7.45;1.50;;;;;;;1.86;100.00;100018.72;6089644;29;20079;-84
2023/03/15 02:46:58;;;;;;;11.70;2.20;;;;;;;1.76;100.00;100022.63;6086866;29;20063;-84
2023/03/15 02:50:00;;;;;;;9.48;3.15;;;;;;;1.69;100.00;100027.25;6090696;29;20155;-84
2023/03/15 02:53:04;;;;;;;10.40;1.90;;;;;;;1.62;100.00;100028.44;6078939;29;20069;-84
2023/03/15 02:56:06;;;;;;;9.82;2.03;;;;;;;1.62;100.00;100028.44;6097685;29;20062;-84
2023/03/15 02:59:08;;;;;;;8.73;1.92;;;;;;;1.50;100.00;100032.41;6084586;29;20057;-84
2023/03/15 03:02:11;;;;;;;8.50;1.65;;;;;;;1.45;100.00;100034.38;6077965;29;20119;-84
2023/03/15 03:05:16;;;;;;;3.78;1.40;;;;;;;1.49;100.00;100048.63;6087621;29;20044;-84
2023/03/15 03:08:17;;;;;;;6.43;2.42;;;;;;;1.51;100.00;100051.09;6089665;29;20478;-83
2023/03/15 03:11:19;;;;;;;6.85;2.00;;;;;;;1.54;100.00;100050.97;6082673;29;20150;-83
2023/03/15 03:14:24;;;;;;;7.63;2.70;;;;;;;1.58;100.00;100049.06;6088097;29;20093;-84
2023/03/15 03:17:26;;;;;;;6.40;2.58;;;;;;;1.59;100.00;100056.66;6080274;29;21003;-84
2023/03/15 03:20:28;;;;;;;6.38;2.47;;;;;;;1.54;100.00;100060.31;6092058;29;20418;-84
2023/03/15 03:23:31;;;;;;;9.32;2.90;;;;;;;1.46;100.00;100065.78;6084261;29;20040;-84
2023/03/15 03:26:32;;;;;;;8.05;2.50;;;;;;;1.44;100.00;100068.44;6088649;29;20048;-84
2023/03/15 03:29:34;;;;;;;6.43;2.47;;;;;;;1.28;100.00;100075.16;6073811;29;20053;-84
2023/03/15 03:32:46;;;;;;;9.48;3.17;;;;;;;1.25;100.00;100098.25;6085650;29;20419;-83
2023/03/15 03:35:49;;;;;;;10.93;3.00;;;;;;;1.16;100.00;100086.75;6101823;29;20044;-84
2023/03/15 03:38:52;;;;;;;6.65;2.55;;;;;;;1.16;100.00;100096.13;6081630;29;20052;-83
2023/03/15 03:41:55;;;;;;;11.75;2.92;;;;;;;0.94;100.00;100093.75;6077769;29;20452;-84
2023/03/15 03:44:57;;;;;;;6.72;2.47;;;;;;;0.78;100.00;100094.44;6086899;29;20236;-83
2023/03/15 03:48:07;;;;;;;11.02;3.42;;;;;;;0.69;100.00;100089.78;6072139;29;20511;-84
2023/03/15 03:51:22;;;;;;;5.33;3.00;;;;;;;0.61;100.00;100097.75;6312617;27;20389;-84
2023/03/15 03:54:24;;;;;;;5.65;2.80;;;;;;;0.45;100.00;100091.72;6303480;28;20348;-84
2023/03/15 03:57:26;;;;;;;6.00;2.70;;;;;;;0.39;100.00;100102.97;6303437;28;20465;-83
2023/03/15 04:00:28;;;;;;;8.27;2.85;;;;;;;0.38;100.00;100114.06;6295907;28;20048;-84
2023/03/15 04:03:30;;;;;;;7.15;2.53;;;;;;;0.50;100.00;100125.44;6305215;28;20085;-84
2023/03/15 04:06:44;;;;;;;5.97;2.45;;;;;;;0.63;100.00;100129.09;6286542;28;20098;-83
2023/03/15 04:09:47;;;;;;;6.90;3.10;;;;;;;0.80;100.00;100135.16;6318085;28;20589;-84
2023/03/15 04:12:49;;;;;;;7.00;2.47;;;;;;;0.88;100.00;100145.81;6313831;28;20047;-83
2023/03/15 04:15:56;;;;;;;6.78;2.88;;;;;;;1.01;100.00;100146.09;6276862;28;20044;-84
2023/03/15 04:19:04;;;;;;;6.47;2.92;;;;;;;1.06;100.00;100162.00;6304478;28;20080;-84
2023/03/15 04:22:07;;;;;;;9.25;3.55;;;;;;;1.19;100.00;100152.06;6309039;28;20378;-83
2023/03/15 04:25:27;;;;;;;11.10;2.97;;;;;;;1.31;100.00;100163.41;6307072;28;20382;-83
2023/03/15 04:28:42;;;;;;;4.90;2.92;;;;;;;1.29;100.00;100161.78;6308068;28;20041;-84
2023/03/15 04:32:03;;;;;;;7.35;2.63;;;;;;;1.23;100.00;100162.03;6295706;28;20048;-84
2023/03/15 04:35:25;;;;;;;7.97;3.13;;;;;;;1.27;100.00;100162.75;6300463;28;20049;-84
2023/03/15 04:38:34;;;;;;;6.72;2.90;;;;;;;1.35;100.00;100178.50;6305420;28;20064;-84
2023/03/15 04:41:54;;;;;;;7.97;2.83;;;;;;;1.38;100.00;100175.81;6312525;28;20553;-83
2023/03/15 04:45:03;;;;;;;6.90;2.45;;;;;;;1.48;100.00;100179.59;6292478;28;20052;-84
2023/03/15 04:48:30;;;;;;;3.88;2.33;;;;;;;1.46;100.00;100178.00;6302935;28;20140;-83
2023/03/15 04:51:50;;;;;;;9.32;2.40;;;;;;;1.42;100.00;100181.63;6299041;28;20040;-83
2023/03/15 04:55:12;;;;;;;4.22;2.40;;;;;;;1.34;100.00;100188.78;6301872;28;20052;-84
2023/03/15 04:58:53;;;;;;;4.18;2.20;;;;;;;1.35;100.00;100190.44;6250034;28;20095;-84
2023/03/15 05:02:20;;;;;;;8.77;2.35;;;;;;;1.38;100.00;100201.31;6232988;28;20138;-83
2023/03/15 05:05:44;;;;;;;4.63;2.22;;;;;;;1.38;100.00;100198.75;6224847;28;20064;-84
2023/03/15 05:09:04;;;;;;;4.40;2.55;;;;;;;1.31;100.00;100205.03;6235692;28;20148;-84
2023/03/15 05:12:25;;;;;;;9.70;2.78;;;;;;;1.35;100.00;100210.84;6211418;28;20049;-84
2023/03/15 05:15:45;;;;;;;4.82;2.70;;;;;;;1.41;100.00;100216.47;6248046;28;20161;-84
2023/03/15 05:19:08;;;;;;;7.35;2.85;;;;;;;1.36;100.00;100222.69;6254923;28;20056;-84
2023/03/15 05:22:24;;;;;;;5.90;2.78;;;;;;;1.39;100.00;100227.63;6210818;28;20058;-83
2023/03/15 05:25:54;;;;;;;7.10;2.58;;;;;;;1.41;100.00;100230.94;6153698;28;20508;-83
2023/03/15 05:29:14;;;;;;;10.77;2.75;;;;;;;1.38;100.00;100233.63;6161482;28;20055;-84
2023/03/15 05:32:38;;;;;;;4.88;2.53;;;;;;;1.52;100.00;100236.41;6161494;28;20050;-83
2023/03/15 05:35:55;;;;;;;5.43;2.53;;;;;;;1.53;100.00;100242.31;6150871;28;20055;-84
2023/03/15 05:39:17;;;;;;;5.60;2.40;;;;;;;1.53;100.00;100250.78;6162344;28;20062;-84
2023/03/15 05:42:37;;;;;;;3.38;2.42;;;;;;;1.51;100.00;100252.56;6161396;28;20059;-84
2023/03/15 05:45:59;;;;;;;4.47;2.72;;;;;;;1.40;100.00;100273.47;6157842;28;20062;-84
2023/03/15 05:49:29;;;;;;;3.78;2.33;;;;;;;1.45;100.00;100281.75;6161842;28;20080;-83
2023/03/15 05:52:50;;;;;;;4.22;2.47;;;;;;;1.40;100.00;100283.69;6160022;28;20047;-84
2023/03/15 05:56:11;;;;;;;4.53;2.13;;;;;;;1.45;100.00;100294.50;6162647;28;20061;-84
2023/03/15 05:59:39;;;;;;;4.35;2.00;;;;;;;1.45;100.00;100299.59;6208355;28;20058;-84
2023/03/15 06:02:59;;;;;;;8.23;2.73;;;;;;;1.60;100.00;100304.91;6254007;28;20060;-83
2023/03/15 06:06:14;;;;;;;6.53;2.53;;;;;;;1.63;100.00;100320.88;6279864;28;20060;-84
2023/03/15 06:09:16;;;;;;;3.72;2.47;;;;;;;1.65;100.00;100328.47;6287083;28;20045;-84
2023/03/15 06:12:21;;;;;;;3.28;2.38;;;;;;;1.71;100.00;100325.66;6286248;28;20040;-84
2023/03/15 06:15:23;;;;;;;6.18;2.60;;;;;;;1.72;100.00;100324.75;6266970;28;20045;-83
2023/03/15 06:18:26;;;;;;;6.97;2.90;;;;;;;1.62;100.00;100311.59;6283993;28;20039;-83
2023/03/15 06:21:29;;;;;;;4.38;2.70;;;;;;;1.37;100.00;100334.00;6284540;28;20036;-84
2023/03/15 06:24:31;;;;;;;4.82;2.58;;;;;;;1.31;100.00;100329.97;6284157;28;20049;-84
2023/03/15 06:27:34;;;;;;;7.57;2.92;;;;;;;1.34;100.00;100337.47;6292052;28;20041;-83
2023/03/15 06:30:36;;;;;;;4.82;2.90;;;;;;;1.36;100.00;100353.53;6278083;28;20509;-84
2023/03/15 06:33:38;;;;;;;5.38;2.65;;;;;;;1.62;100.00;100351.59;6268203;28;20512;-84
2023/03/15 06:36:44;;;;;;;7.78;3.35;;;;;;;1.87;100.00;100364.06;6285416;28;20364;-84
2023/03/15 06:39:46;;;;;;;3.85;2.83;;;;;;;1.98;100.00;100361.84;6285619;28;20047;-84
2023/03/15 06:42:48;;;;;;;5.85;2.85;;;;;;;1.97;100.00;100365.31;6284548;28;20047;-84
2023/03/15 06:45:52;;;;;;;6.03;2.50;;;;;;;2.22;100.00;100379.50;6283058;28;20506;-84
2023/03/15 06:48:55;;;;;;;7.55;3.65;;;;;;;2.40;100.00;100370.13;6286755;28;20387;-84
2023/03/15 06:51:57;;;;;;;4.53;2.80;;;;;;;2.54;100.00;100380.53;6282676;28;20399;-84
2023/03/15 06:54:58;;;;;;;4.15;2.75;;;;;;;2.73;100.00;100388.97;6288208;28;20075;-84
2023/03/15 06:58:00;;;;;;;4.97;2.65;;;;;;;2.67;100.00;100393.53;6282810;28;20330;-84
2023/03/15 07:01:02;;;;;;;5.40;2.63;;;;;;;2.45;100.00;100401.38;6275376;28;20043;-84
2023/03/15 07:04:04;;;;;;;6.05;2.83;;;;;;;2.26;100.00;100409.06;6285605;28;20129;-84
2023/03/15 07:07:12;;;;;;;4.15;2.67;;;;;;;1.99;100.00;100406.06;6282290;28;20154;-84
2023/03/15 07:10:15;;;;;;;7.82;3.22;;;;;;;1.76;100.00;100413.00;6286234;28;20052;-84
2023/03/15 07:13:18;;;;;;;6.88;3.40;;;;;;;1.70;100.00;100415.84;6285883;28;20047;-84
2023/03/15 07:16:21;;;;;;;4.00;2.83;;;;;;;1.58;100.00;100416.38;6285844;28;20040;-84
2023/03/15 07:19:23;;;;;;;15.05;3.25;;;;;;;1.54;100.00;100425.91;6286529;28;20040;-84
2023/03/15 07:22:25;;;;;;;4.40;2.80;;;;;;;1.60;100.00;100432.47;6306771;28;20094;-84
2023/03/15 07:25:27;;;;;;;6.68;3.28;;;;;;;1.68;100.00;100443.97;6285866;28;20055;-84
2023/03/15 07:28:29;;;;;;;5.15;2.97;;;;;;;1.74;100.00;100455.66;6284645;28;20421;-83
2023/03/15 07:31:31;;;;;;;6.88;3.00;;;;;;;2.00;100.00;100446.84;6285708;28;20055;-84
2023/03/15 07:34:32;;;;;;;4.35;2.83;;;;;;;2.05;100.00;100446.63;6283153;28;20047;-84
2023/03/15 07:37:34;;;;;;;11.07;3.95;;;;;;;2.04;100.00;100467.97;6295466;28;20091;-84
2023/03/15 07:40:36;;;;;;;4.30;2.58;;;;;;;2.09;100.00;100464.31;6282366;28;20043;-84
2023/03/15 07:43:38;;;;;;;10.10;3.13;;;;;;;2.18;100.00;100468.16;6282392;28;20044;-84
2023/03/15 07:46:51;;;;;;;7.57;3.03;;;;;;;2.18;100.00;100487.75;6285102;28;20135;-84
2023/03/15 07:49:53;;;;;;;5.28;2.72;;;;;;;2.19;100.00;100482.59;6277711;28;20147;-84
2023/03/15 07:52:55;;;;;;;5.72;3.03;;;;;;;2.39;100.00;100481.69;6281498;28;20048;-84
2023/03/15 07:55:57;;;;;;;5.72;2.50;;;;;;;2.45;100.00;100483.94;6274895;28;20785;-84
2023/03/15 07:58:59;;;;;;;6.28;3.35;;;;;;;2.40;100.00;100483.34;6285423;28;20037;-84
2023/03/15 08:02:00;;;;;;;4.45;2.63;;;;;;;2.29;100.00;100493.22;6279701;28;20068;-84
2023/03/15 08:05:04;;;;;;;6.88;2.88;;;;;;;2.21;100.00;100495.28;6284311;28;20123;-84
2023/03/15 08:08:06;;;;;;;5.05;2.85;;;;;;;2.11;100.00;100499.97;6276850;28;20041;-84
2023/03/15 08:11:08;;;;;;;4.20;2.40;;;;;;;2.20;100.00;100493.63;6286561;28;20489;-84
2023/03/15 08:14:09;;;;;;;6.78;2.80;;;;;;;2.29;100.00;100496.59;6285635;28;20565;-84
2023/03/15 08:17:13;;;;;;;5.97;2.33;;;;;;;2.31;100.00;100507.59;6293592;28;20044;-84
2023/03/15 08:20:18;;;;;;;3.80;2.63;;;;;;;2.22;100.00;100513.09;6283897;28;20040;-84
2023/03/15 08:23:20;;;;;;;6.15;2.08;;;;;;;2.33;100.00;100517.72;6300564;28;20498;-84
2023/03/15 08:26:22;;;;;;;7.38;2.53;;;;;;;2.46;100.00;100523.94;6289909;28;20033;-84
2023/03/15 08:29:24;;;;;;;4.85;2.50;;;;;;;2.41;100.00;100525.88;6286301;28;20447;-84
2023/03/15 08:32:26;;;;;;;7.30;2.63;;;;;;;2.47;100.00;100535.00;6286822;28;20041;-84
2023/03/15 08:35:28;;;;;;;5.88;2.63;;;;;;;2.57;100.00;100523.44;6285421;28;20036;-84
2023/03/15 08:38:30;;;;;;;6.10;2.60;;;;;;;2.67;100.00;100532.34;6289601;28;20062;-84
2023/03/15 08:41:31;;;;;;;5.60;2.67;;;;;;;2.67;100.00;100536.63;6288122;28;20036;-84
2023/03/15 08:44:33;;;;;;;6.47;3.05;;;;;;;2.71;100.00;100545.81;6286496;28;20141;-84
2023/03/15 08:47:37;;;;;;;6.07;2.20;;;;;;;2.72;100.00;100553.41;6288183;28;20406;-84
2023/03/15 08:50:39;;;;;;;7.43;2.20;;;;;;;2.76;100.00;100554.94;6290263;28;20055;-83
2023/03/15 08:53:41;;;;;;;5.72;2.47;;;;;;;2.83;100.00;100569.97;6301169;28;20145;-83
2023/03/15 08:56:43;;;;;;;4.68;2.22;;;;;;;2.90;100.00;100564.50;6290512;28;20036;-83
2023/03/15 08:59:45;;;;;;;5.75;2.60;;;;;;;2.86;100.00;100572.38;6296662;28;20167;-83
2023/03/15 09:02:48;;;;;;;4.47;2.00;;;;;;;2.92;100.00;100577.22;6289571;28;20167;-83
2023/03/15 09:05:54;;;;;;;6.32;2.33;;;;;;;3.06;100.00;100589.38;6282011;28;20451;-83
2023/03/15 09:08:56;;;;;;;6.47;2.15;;;;;;;3.38;100.00;100595.50;6296601;28;20067;-83
2023/03/15 09:11:57;;;;;;;4.60;2.28;;;;;;;3.41;100.00;100600.50;6288898;28;20804;-83
2023/03/15 09:14:59;;;;;;;3.38;1.77;;;;;;;3.60;100.00;100605.53;6286565;28;20546;-83
2023/03/15 09:18:01;;;;;;;3.08;1.45;;;;;;;3.85;100.00;100616.25;6289125;28;20081;-83
2023/03/15 09:21:04;;;;;;;7.03;2.20;;;;;;;4.28;100.00;100608.94;6289417;28;20155;-83
2023/03/15 09:24:05;;;;;;;7.88;2.17;;;;;;;4.65;100.00;100617.28;6291165;28;20486;-83
2023/03/15 09:27:07;;;;;;;8.45;2.13;;;;;;;4.88;100.00;100633.19;6300778;28;20499;-84
2023/03/15 09:30:10;;;;;;;5.85;1.52;;;;;;;4.83;100.00;100624.91;6285594;28;20036;-83
2023/03/15 09:33:13;;;;;;;8.55;1.85;;;;;;;4.80;100.00;100631.03;6286642;28;20043;-83
2023/03/15 09:36:15;;;;;;;3.40;1.50;;;;;;;4.66;100.00;100629.19;6296051;28;20516;-83
2023/03/15 09:39:19;;;;;;;3.33;1.60;;;;;;;4.51;100.00;100630.81;6288537;28;20036;-83
2023/03/15 09:42:29;;;;;;;4.95;1.50;;;;;;;4.53;100.00;100634.13;6280955;28;20063;-83
2023/03/15 09:45:42;;;;;;;8.23;1.70;;;;;;;4.82;100.00;100646.31;6290537;28;20441;-83
2023/03/15 09:48:57;;;;;;;8.10;1.48;;;;;;;4.83;100.00;100635.16;6282204;28;20337;-83
2023/03/15 09:52:05;;;;;;;8.75;1.77;;;;;;;4.73;100.00;100634.84;6291917;28;20036;-83
2023/03/15 09:55:24;;;;;;;7.85;1.55;;;;;;;4.96;100.00;100636.97;6275903;28;20048;-83
2023/03/15 09:58:33;;;;;;;8.27;1.80;;;;;;;4.84;100.00;100639.38;6287080;28;20770;-83
2023/03/15 10:01:38;;;;;;;5.15;1.40;;;;;;;5.11;100.00;100644.78;6287076;28;20048;-83
2023/03/15 10:04:44;;;;;;;9.55;1.60;;;;;;;5.30;100.00;100647.16;6287084;28;20059;-83
2023/03/15 10:07:46;;;;;;;3.00;1.52;;;;;;;5.33;100.00;100645.25;6288176;28;20068;-83
2023/03/15 10:11:16;;;;;;;6.78;2.05;;;;;;;5.61;100.00;100636.00;6280757;28;20040;-83
2023/03/15 10:14:35;;;;;;;5.68;1.85;;;;;;;5.77;100.00;100649.63;6278403;28;20044;-83
2023/03/15 10:17:41;;;;;;;5.05;1.52;;;;;;;5.60;100.00;100652.34;6289122;28;20501;-83
2023/03/15 10:20:52;;;;;;;6.38;1.40;;;;;;;5.55;100.00;100646.63;6295903;28;20040;-83
2023/03/15 10:23:54;;;;;;;4.40;1.20;;;;;;;5.19;100.00;100640.03;6285095;28;20195;-83
2023/03/15 10:27:01;;;;;;;10.25;1.85;;;;;;;5.12;100.00;100649.81;6286453;28;20053;-83
2023/03/15 10:30:16;;;;;;;4.85;1.20;;;;;;;5.08;100.00;100650.91;6285957;28;20053;-83
2023/03/15 10:33:38;;;;;;;2.20;1.02;;;;;;;4.79;100.00;100652.44;6287657;28;20036;-83
2023/03/15 10:36:54;;;;;;;5.97;1.38;;;;;;;4.79;100.00;100649.88;6280012;28;20147;-83
2023/03/15 10:39:58;;;;;;;6.00;1.40;;;;;;;5.04;100.00;100646.81;6290101;28;20052;-83
2023/03/15 10:42:59;;;;;;;5.70;0.85;;;;;;;5.34;100.00;100649.50;6286811;28;20048;-83
2023/03/15 10:46:08;;;;;;;2.90;1.00;;;;;;;5.82;100.00;100654.53;6285355;28;20047;-83
2023/03/15 10:49:14;;;;;;;7.38;1.63;;;;;;;5.83;100.00;100654.41;6289196;28;20044;-83
2023/03/15 10:52:36;;;;;;;5.57;1.88;;;;;;;5.60;100.00;100657.47;6288533;28;20657;-83
2023/03/15 10:55:44;;;;;;;4.50;1.30;;;;;;;5.57;100.00;100649.94;6294055;28;20040;-83
2023/03/15 10:58:47;;;;;;;3.80;1.15;;;;;;;5.69;100.00;100666.38;6289648;28;20055;-84
2023/03/15 11:02:12;;;;;;;5.93;1.40;;;;;;;6.01;100.00;100647.44;6283715;28;20062;-83
2023/03/15 11:05:16;;;;;;;2.58;1.38;;;;;;;6.14;100.00;100652.69;6286609;28;20045;-84
2023/03/15 11:08:21;;;;;;;5.78;0.95;;;;;;;6.54;100.00;100659.78;6290398;28;20101;-84
2023/03/15 11:11:22;;;;;;;4.85;1.50;;;;;;;6.68;100.00;100655.47;6291401;28;20490;-84
2023/03/15 11:14:32;;;;;;;7.60;1.30;;;;;;;6.88;100.00;100655.97;6292133;28;20537;-84
2023/03/15 11:17:41;;;;;;;4.53;1.23;;;;;;;6.55;100.00;100672.53;6291457;28;20035;-84
2023/03/15 11:20:44;;;;;;;5.65;1.35;;;;;;;6.64;100.00;100669.44;6284717;28;20324;-84
2023/03/15 11:23:48;;;;;;;2.83;0.90;;;;;;;6.71;100.00;100677.63;6284725;28;20043;-84
2023/03/15 11:26:53;;;;;;;7.32;1.60;;;;;;;6.90;100.00;100677.31;6292328;28;20047;-84
2023/03/15 11:29:58;;;;;;;4.78;1.98;;;;;;;7.01;100.00;100677.50;6286316;28;20310;-84
2023/03/15 11:33:07;;;;;;;11.38;1.42;;;;;;;6.94;100.00;100698.53;6276931;28;20230;-84
2023/03/15 11:36:19;;;;;;;5.72;1.20;;;;;;;6.98;100.00;100677.69;6291501;28;20032;-84
2023/03/15 11:39:38;;;;;;;3.05;1.00;;;;;;;6.64;100.00;100686.63;6284309;28;20119;-85
2023/03/15 11:43:20;;;;;;;4.78;0.90;;;;;;;6.19;100.00;100694.38;6282426;28;20044;-85
2023/03/15 11:46:46;;;;;;;2.00;0.70;;;;;;;5.71;100.00;100691.06;6277815;28;20496;-84
2023/03/15 11:49:51;;;;;;;1.63;0.88;;;;;;;5.37;100.00;100695.50;6283075;28;20094;-84
2023/03/15 11:52:53;;;;;;;6.57;0.93;;;;;;;5.45;100.00;100695.09;6288232;28;20043;-84
2023/03/15 11:55:54;;;;;;;3.55;0.70;;;;;;;5.62;100.00;100691.59;6285283;28;20036;-84
2023/03/15 11:59:18;;;;;;;3.17;0.90;;;;;;;5.75;100.00;100696.88;6283741;28;20190;-84
2023/03/15 12:02:22;;;;;;;2.60;1.00;;;;;;;5.70;100.00;100707.41;6285057;28;20049;-84
2023/03/15 12:05:42;;;;;;;5.32;1.33;;;;;;;5.61;100.00;100715.59;6285612;28;20410;-84
2023/03/15 12:08:50;;;;;;;3.33;1.10;;;;;;;5.55;100.00;100697.97;6286494;28;20073;-84
2023/03/15 12:11:57;;;;;;;3.10;1.75;;;;;;;5.75;100.00;100694.31;6288614;28;20571;-84
2023/03/15 12:15:19;;;;;;;6.13;1.17;;;;;;;6.24;100.00;100710.34;6287591;28;20039;-84
2023/03/15 12:18:29;;;;;;;4.15;1.30;;;;;;;6.60;100.00;100716.00;6250658;28;20053;-85
2023/03/15 12:21:39;;;;;;;4.00;1.00;;;;;;;6.60;100.00;100710.84;6239520;28;20115;-85
2023/03/15 12:24:44;;;;;;;2.38;0.90;;;;;;;6.72;100.00;100727.31;6244619;28;20051;-85
2023/03/15 12:27:49;;;;;;;3.45;0.77;;;;;;;6.67;100.00;100714.72;6227117;28;20048;-84
2023/03/15 12:30:55;;;;;;;2.45;0.70;;;;;;;6.61;100.00;100720.25;6241489;28;20064;-85
2023/03/15 12:34:00;;;;;;;3.20;0.70;;;;;;;5.97;100.00;100783.88;6225517;28;20049;-84
2023/03/15 12:37:14;;;;;;;3.80;1.40;;;;;;;4.65;100.00;100775.44;6221695;28;20056;-86
2023/03/15 12:40:22;;;;;;;5.45;0.90;;;;;;;4.09;100.00;100798.59;6229127;28;20076;-86
2023/03/15 12:43:51;;;;;;;1.63;0.68;;;;;;;3.51;100.00;100806.44;6237789;28;20077;-86
2023/03/15 12:46:55;;;;;;;2.00;0.70;;;;;;;3.47;100.00;100827.09;6238495;28;20138;-85
2023/03/15 12:50:36;;;;;;;1.30;0.60;;;;;;;3.48;100.00;100815.97;6234322;28;20562;-86
2023/03/15 12:53:44;;;;;;;0.93;0.60;;;;;;;3.36;100.00;100822.47;6226092;28;20128;-86
2023/03/15 12:56:53;;;;;;;1.40;0.50;;;;;;;2.94;100.00;100820.88;6272589;28;20060;-85
2023/03/15 12:59:54;;;;;;;2.15;0.35;;;;;;;2.73;100.00;100837.94;6291599;28;20051;-85
2023/03/15 13:03:11;;;;;;;1.33;0.60;;;;;;;2.86;100.00;100843.34;6289819;28;20113;-85
2023/03/15 13:06:42;;;;;;;0.60;0.38;;;;;;;2.66;100.00;100856.97;6290251;28;20035;-86
2023/03/15 13:10:11;;;;;;;1.33;0.60;;;;;;;2.65;100.00;100858.69;6288016;28;20047;-86
2023/03/15 13:13:29;;;;;;;1.65;0.57;;;;;;;2.66;100.00;100870.59;6288360;28;20048;-86
2023/03/15 13:16:55;;;;;;;2.58;1.02;;;;;;;2.80;100.00;100857.22;6288892;28;20056;-86
2023/03/15 13:20:12;;;;;;;1.70;0.60;;;;;;;2.91;100.00;100877.25;6286740;28;20060;-87
2023/03/15 13:23:29;;;;;;;1.00;0.63;;;;;;;2.79;100.00;100851.28;6289169;28;20048;-87
2023/03/15 13:26:57;;;;;;;3.58;0.73;;;;;;;2.79;100.00;100856.41;6288152;28;20510;-87
2023/03/15 13:30:37;;;;;;;2.63;1.13;;;;;;;2.88;100.00;100851.81;6285625;28;20489;-87
2023/03/15 13:33:39;;;;;;;3.05;0.70;;;;;;;2.77;100.00;100859.91;6289762;28;20502;-87
2023/03/15 13:36:48;;;;;;;2.72;0.77;;;;;;;2.64;100.00;100848.56;6278446;28;20056;-86
2023/03/15 13:40:02;;;;;;;2.95;0.77;;;;;;;2.81;100.00;100858.91;6282932;28;20040;-86
2023/03/15 13:43:10;;;;;;;1.20;0.43;;;;;;;2.96;100.00;100848.03;6276840;28;20702;-86
2023/03/15 13:46:12;;;;;;;2.25;0.90;;;;;;;3.21;100.00;100842.72;6285888;28;20032;-86
2023/03/15 13:49:15;;;;;;;0.40;0.40;;;;;;;3.44;100.00;100838.31;6282856;28;20082;-86
2023/03/15 13:52:17;;;;;;;1.23;0.65;;;;;;;3.65;100.00;100841.63;6283360;28;20056;-86
2023/03/15 13:55:24;;;;;;;1.60;0.60;;;;;;;3.69;100.00;100834.66;6287940;28;20048;-86
2023/03/15 13:58:26;;;;;;;2.85;0.45;;;;;;;3.86;100.00;100843.22;6287393;28;20043;-85
2023/03/15 14:01:34;;;;;;;2.15;0.35;;;;;;;3.92;100.00;100836.97;6279180;28;20047;-85
2023/03/15 14:04:37;;;;;;;0.70;0.45;;;;;;;4.13;100.00;100842.03;6284399;28;20110;-85
2023/03/15 14:07:48;;;;;;;4.28;0.82;;;;;;;4.29;100.00;100833.53;6283156;28;20041;-85
2023/03/15 14:10:58;;;;;;;3.70;0.60;;;;;;;4.49;100.00;100836.84;6278707;28;20044;-85
2023/03/15 14:14:04;;;;;;;2.35;0.50;;;;;;;4.64;100.00;100850.66;6284739;28;20040;-85
2023/03/15 14:17:17;;;;;;;2.70;0.68;;;;;;;4.54;100.00;100837.47;6289803;28;20067;-85
2023/03/15 14:20:27;;;;;;;1.10;0.45;;;;;;;4.58;100.00;100846.69;6284040;28;20040;-85
2023/03/15 14:23:30;;;;;;;1.90;0.70;;;;;;;4.63;100.00;100854.16;6282631;28;20036;-85
2023/03/15 14:26:34;;;;;;;2.05;0.75;;;;;;;4.66;100.00;100852.25;6281537;28;20048;-85
2023/03/15 14:29:38;;;;;;;0.95;0.50;;;;;;;4.64;100.00;100842.97;6282398;28;20043;-85
2023/03/15 14:32:51;;;;;;;6.22;0.63;;;;;;;4.67;100.00;100840.25;6267571;28;20345;-84
2023/03/15 14:35:57;;;;;;;1.98;0.77;;;;;;;4.83;100.00;100843.72;6280745;28;20037;-84
2023/03/15 14:38:59;;;;;;;5.15;0.88;;;;;;;4.88;100.00;100853.75;6285053;28;20044;-84
2023/03/15 14:42:01;;;;;;;3.63;0.68;;;;;;;4.85;100.00;100853.94;6282034;28;20055;-85